sensor_id;sensor_type;location;lat;lon;timestamp;temperature;humidity
46356;DHT22;32066;49.474;11.106;2023-04-01T00:01:30;12.60;92.40
46356;DHT22;32066;49.474;11.106;2023-04-01T00:03:59;12.60;92.20
46356;DHT22;32066;49.474;11.106;2023-04-01T00:06:27;12.70;92.30
46356;DHT22;32066;49.474;11.106;2023-04-01T00:08:56;12.60;92.20
46356;DHT22;32066;49.474;11.106;2023-04-01T00:11:25;12.60;92.30
46356;DHT22;32066;49.474;11.106;2023-04-01T00:13:55;12.60;92.30
46356;DHT22;32066;49.474;11.106;2023-04-01T00:16:26;12.70;92.40
46356;DHT22;32066;49.474;11.106;2023-04-01T00:18:54;12.70;92.30
46356;DHT22;32066;49.474;11.106;2023-04-01T00:21:23;12.70;92.20
46356;DHT22;32066;49.474;11.106;2023-04-01T00:23:52;12.70;92.20
46356;DHT22;32066;49.474;11.106;2023-04-01T00:26:21;12.80;92.20
46356;DHT22;32066;49.474;11.106;2023-04-01T00:28:51;12.80;92.10
46356;DHT22;32066;49.474;11.106;2023-04-01T00:31:20;12.80;92.20
46356;DHT22;32066;49.474;11.106;2023-04-01T00:33:51;12.70;92.20
46356;DHT22;32066;49.474;11.106;2023-04-01T00:36:21;12.70;92.20
46356;DHT22;32066;49.474;11.106;2023-04-01T00:38:50;12.70;92.00
46356;DHT22;32066;49.474;11.106;2023-04-01T00:41:20;12.80;92.00
46356;DHT22;32066;49.474;11.106;2023-04-01T00:43:50;12.80;92.00
46356;DHT22;32066;49.474;11.106;2023-04-01T00:46:20;12.80;92.00
46356;DHT22;32066;49.474;11.106;2023-04-01T00:48:54;12.80;92.00
46356;DHT22;32066;49.474;11.106;2023-04-01T00:51:26;12.70;91.90
46356;DHT22;32066;49.474;11.106;2023-04-01T00:53:58;12.80;92.00
46356;DHT22;32066;49.474;11.106;2023-04-01T00:56:33;12.80;91.90
46356;DHT22;32066;49.474;11.106;2023-04-01T00:59:05;12.80;91.90
46356;DHT22;32066;49.474;11.106;2023-04-01T01:01:36;12.80;91.80
46356;DHT22;32066;49.474;11.106;2023-04-01T01:04:21;12.80;91.90
46356;DHT22;32066;49.474;11.106;2023-04-01T01:06:57;12.80;91.80
46356;DHT22;32066;49.474;11.106;2023-04-01T01:09:37;12.70;91.80
46356;DHT22;32066;49.474;11.106;2023-04-01T01:12:11;12.80;91.70
46356;DHT22;32066;49.474;11.106;2023-04-01T01:14:51;12.80;91.70
46356;DHT22;32066;49.474;11.106;2023-04-01T01:17:29;12.80;91.70
46356;DHT22;32066;49.474;11.106;2023-04-01T01:26:35;12.80;91.60
46356;DHT22;32066;49.474;11.106;2023-04-01T01:31:54;12.80;91.60
46356;DHT22;32066;49.474;11.106;2023-04-01T01:34:29;12.80;91.50
46356;DHT22;32066;49.474;11.106;2023-04-01T01:37:08;12.80;91.60
46356;DHT22;32066;49.474;11.106;2023-04-01T01:39:39;12.80;91.50
46356;DHT22;32066;49.474;11.106;2023-04-01T01:42:11;12.80;91.50
46356;DHT22;32066;49.474;11.106;2023-04-01T01:44:43;12.80;91.60
46356;DHT22;32066;49.474;11.106;2023-04-01T01:47:14;12.80;91.60
46356;DHT22;32066;49.474;11.106;2023-04-01T01:49:44;12.80;91.50
46356;DHT22;32066;49.474;11.106;2023-04-01T01:52:17;12.80;91.40
46356;DHT22;32066;49.474;11.106;2023-04-01T01:54:49;12.80;91.40
46356;DHT22;32066;49.474;11.106;2023-04-01T01:57:22;12.80;91.40
46356;DHT22;32066;49.474;11.106;2023-04-01T01:59:58;12.80;91.50
46356;DHT22;32066;49.474;11.106;2023-04-01T02:02:39;12.80;91.40
46356;DHT22;32066;49.474;11.106;2023-04-01T02:05:09;12.80;91.40
46356;DHT22;32066;49.474;11.106;2023-04-01T02:07:43;12.70;91.40
46356;DHT22;32066;49.474;11.106;2023-04-01T02:10:13;12.70;91.70
46356;DHT22;32066;49.474;11.106;2023-04-01T02:12:44;12.80;91.40
46356;DHT22;32066;49.474;11.106;2023-04-01T02:15:15;12.80;91.40
46356;DHT22;32066;49.474;11.106;2023-04-01T02:17:46;12.70;91.30
46356;DHT22;32066;49.474;11.106;2023-04-01T02:20:18;12.70;91.30
46356;DHT22;32066;49.474;11.106;2023-04-01T02:22:52;12.80;91.30
46356;DHT22;32066;49.474;11.106;2023-04-01T02:25:24;12.80;91.40
46356;DHT22;32066;49.474;11.106;2023-04-01T02:27:56;12.80;91.40
46356;DHT22;32066;49.474;11.106;2023-04-01T02:30:27;12.80;91.20
46356;DHT22;32066;49.474;11.106;2023-04-01T02:32:58;12.80;91.30
46356;DHT22;32066;49.474;11.106;2023-04-01T02:35:27;12.70;91.10
46356;DHT22;32066;49.474;11.106;2023-04-01T02:37:59;12.80;91.10
46356;DHT22;32066;49.474;11.106;2023-04-01T02:40:28;12.70;91.20
46356;DHT22;32066;49.474;11.106;2023-04-01T02:42:56;12.70;91.20
46356;DHT22;32066;49.474;11.106;2023-04-01T02:45:26;12.70;91.30
46356;DHT22;32066;49.474;11.106;2023-04-01T02:47:54;12.70;91.10
46356;DHT22;32066;49.474;11.106;2023-04-01T02:50:23;12.70;91.10
46356;DHT22;32066;49.474;11.106;2023-04-01T02:52:51;12.80;91.10
46356;DHT22;32066;49.474;11.106;2023-04-01T02:55:23;12.70;91.10
46356;DHT22;32066;49.474;11.106;2023-04-01T02:57:51;12.70;91.10
46356;DHT22;32066;49.474;11.106;2023-04-01T03:00:20;12.70;91.10
46356;DHT22;32066;49.474;11.106;2023-04-01T03:02:49;12.80;91.20
46356;DHT22;32066;49.474;11.106;2023-04-01T03:05:17;12.70;91.10
46356;DHT22;32066;49.474;11.106;2023-04-01T03:07:46;12.70;91.10
46356;DHT22;32066;49.474;11.106;2023-04-01T03:10:15;12.70;91.10
46356;DHT22;32066;49.474;11.106;2023-04-01T03:12:47;12.70;91.00
46356;DHT22;32066;49.474;11.106;2023-04-01T03:15:15;12.70;90.90
46356;DHT22;32066;49.474;11.106;2023-04-01T03:17:44;12.70;91.00
46356;DHT22;32066;49.474;11.106;2023-04-01T03:20:14;12.70;91.00
46356;DHT22;32066;49.474;11.106;2023-04-01T03:22:42;12.70;91.00
46356;DHT22;32066;49.474;11.106;2023-04-01T03:25:11;12.70;90.90
46356;DHT22;32066;49.474;11.106;2023-04-01T03:27:40;12.70;90.90
46356;DHT22;32066;49.474;11.106;2023-04-01T03:30:12;12.70;90.80
46356;DHT22;32066;49.474;11.106;2023-04-01T03:32:48;12.70;90.80
46356;DHT22;32066;49.474;11.106;2023-04-01T03:35:17;12.70;90.70
46356;DHT22;32066;49.474;11.106;2023-04-01T03:37:46;12.70;90.70
46356;DHT22;32066;49.474;11.106;2023-04-01T03:40:15;12.70;90.80
46356;DHT22;32066;49.474;11.106;2023-04-01T03:42:43;12.70;90.80
46356;DHT22;32066;49.474;11.106;2023-04-01T03:45:15;12.70;90.90
46356;DHT22;32066;49.474;11.106;2023-04-01T03:47:44;12.70;90.90
46356;DHT22;32066;49.474;11.106;2023-04-01T03:50:12;12.60;90.90
46356;DHT22;32066;49.474;11.106;2023-04-01T03:52:41;12.70;90.90
46356;DHT22;32066;49.474;11.106;2023-04-01T03:55:10;12.70;90.80
46356;DHT22;32066;49.474;11.106;2023-04-01T03:57:39;12.70;90.90
46356;DHT22;32066;49.474;11.106;2023-04-01T04:00:18;12.70;90.80
46356;DHT22;32066;49.474;11.106;2023-04-01T04:02:53;12.70;90.80
46356;DHT22;32066;49.474;11.106;2023-04-01T04:05:28;12.70;90.80
46356;DHT22;32066;49.474;11.106;2023-04-01T04:07:57;12.70;90.80
46356;DHT22;32066;49.474;11.106;2023-04-01T04:10:25;12.60;90.80
46356;DHT22;32066;49.474;11.106;2023-04-01T04:12:55;12.60;90.90
46356;DHT22;32066;49.474;11.106;2023-04-01T04:15:28;12.70;90.70
46356;DHT22;32066;49.474;11.106;2023-04-01T04:17:56;12.60;90.70
46356;DHT22;32066;49.474;11.106;2023-04-01T04:20:25;12.60;90.90
46356;DHT22;32066;49.474;11.106;2023-04-01T04:22:53;12.70;90.70
46356;DHT22;32066;49.474;11.106;2023-04-01T04:25:22;12.70;90.90
46356;DHT22;32066;49.474;11.106;2023-04-01T04:27:51;12.60;90.70
46356;DHT22;32066;49.474;11.106;2023-04-01T04:30:20;12.60;90.80
46356;DHT22;32066;49.474;11.106;2023-04-01T04:32:51;12.60;90.70
46356;DHT22;32066;49.474;11.106;2023-04-01T04:35:20;12.60;90.60
46356;DHT22;32066;49.474;11.106;2023-04-01T04:37:49;12.60;90.70
46356;DHT22;32066;49.474;11.106;2023-04-01T04:40:18;12.60;90.60
46356;DHT22;32066;49.474;11.106;2023-04-01T04:42:47;12.60;90.60
46356;DHT22;32066;49.474;11.106;2023-04-01T04:45:16;12.60;90.50
46356;DHT22;32066;49.474;11.106;2023-04-01T04:47:55;12.60;90.40
46356;DHT22;32066;49.474;11.106;2023-04-01T04:50:24;12.60;90.50
46356;DHT22;32066;49.474;11.106;2023-04-01T04:52:53;12.60;90.60
46356;DHT22;32066;49.474;11.106;2023-04-01T04:55:22;12.60;90.60
46356;DHT22;32066;49.474;11.106;2023-04-01T04:58:10;12.60;90.60
46356;DHT22;32066;49.474;11.106;2023-04-01T05:00:41;12.60;90.50
46356;DHT22;32066;49.474;11.106;2023-04-01T05:03:20;12.70;90.50
46356;DHT22;32066;49.474;11.106;2023-04-01T05:05:50;12.60;90.60
46356;DHT22;32066;49.474;11.106;2023-04-01T05:08:19;12.60;90.80
46356;DHT22;32066;49.474;11.106;2023-04-01T05:10:48;12.50;90.80
46356;DHT22;32066;49.474;11.106;2023-04-01T05:13:16;12.50;90.80
46356;DHT22;32066;49.474;11.106;2023-04-01T05:15:46;12.60;90.90
46356;DHT22;32066;49.474;11.106;2023-04-01T05:18:16;12.60;91.00
46356;DHT22;32066;49.474;11.106;2023-04-01T05:20:52;12.60;90.80
46356;DHT22;32066;49.474;11.106;2023-04-01T05:23:21;12.60;90.90
46356;DHT22;32066;49.474;11.106;2023-04-01T05:25:50;12.60;91.00
46356;DHT22;32066;49.474;11.106;2023-04-01T05:28:20;12.60;91.00
46356;DHT22;32066;49.474;11.106;2023-04-01T05:30:48;12.50;91.10
46356;DHT22;32066;49.474;11.106;2023-04-01T05:33:22;12.60;90.80
46356;DHT22;32066;49.474;11.106;2023-04-01T05:35:54;12.60;90.80
46356;DHT22;32066;49.474;11.106;2023-04-01T05:38:23;12.70;90.70
46356;DHT22;32066;49.474;11.106;2023-04-01T05:40:51;12.70;90.80
46356;DHT22;32066;49.474;11.106;2023-04-01T05:43:26;12.60;90.90
46356;DHT22;32066;49.474;11.106;2023-04-01T05:45:57;12.70;90.70
46356;DHT22;32066;49.474;11.106;2023-04-01T05:48:36;12.60;90.80
46356;DHT22;32066;49.474;11.106;2023-04-01T05:51:12;12.60;90.80
46356;DHT22;32066;49.474;11.106;2023-04-01T05:53:42;12.60;91.00
46356;DHT22;32066;49.474;11.106;2023-04-01T05:56:11;12.60;91.00
46356;DHT22;32066;49.474;11.106;2023-04-01T05:58:47;12.50;91.00
46356;DHT22;32066;49.474;11.106;2023-04-01T06:01:18;12.60;91.00
46356;DHT22;32066;49.474;11.106;2023-04-01T06:03:47;12.60;91.00
46356;DHT22;32066;49.474;11.106;2023-04-01T06:06:23;12.60;90.90
46356;DHT22;32066;49.474;11.106;2023-04-01T06:08:57;12.60;91.00
46356;DHT22;32066;49.474;11.106;2023-04-01T06:11:32;12.60;91.00
46356;DHT22;32066;49.474;11.106;2023-04-01T06:14:18;12.60;91.10
46356;DHT22;32066;49.474;11.106;2023-04-01T06:17:06;12.60;91.00
46356;DHT22;32066;49.474;11.106;2023-04-01T06:19:44;12.60;90.90
46356;DHT22;32066;49.474;11.106;2023-04-01T06:22:31;12.70;90.90
46356;DHT22;32066;49.474;11.106;2023-04-01T06:25:30;12.70;90.80
46356;DHT22;32066;49.474;11.106;2023-04-01T06:28:30;12.80;90.80
46356;DHT22;32066;49.474;11.106;2023-04-01T06:31:10;12.80;90.90
46356;DHT22;32066;49.474;11.106;2023-04-01T06:33:55;12.80;90.80
46356;DHT22;32066;49.474;11.106;2023-04-01T06:36:42;12.90;90.80
46356;DHT22;32066;49.474;11.106;2023-04-01T06:42:31;12.90;90.90
46356;DHT22;32066;49.474;11.106;2023-04-01T06:45:18;13.00;90.60
46356;DHT22;32066;49.474;11.106;2023-04-01T06:48:24;12.90;90.70
46356;DHT22;32066;49.474;11.106;2023-04-01T06:51:25;13.00;90.60
46356;DHT22;32066;49.474;11.106;2023-04-01T06:54:18;13.00;90.60
46356;DHT22;32066;49.474;11.106;2023-04-01T06:57:20;13.00;90.50
46356;DHT22;32066;49.474;11.106;2023-04-01T06:59:49;13.10;90.30
46356;DHT22;32066;49.474;11.106;2023-04-01T07:02:24;13.20;90.30
46356;DHT22;32066;49.474;11.106;2023-04-01T07:04:55;13.30;90.10
46356;DHT22;32066;49.474;11.106;2023-04-01T07:07:31;13.20;90.10
46356;DHT22;32066;49.474;11.106;2023-04-01T07:10:11;13.30;90.00
46356;DHT22;32066;49.474;11.106;2023-04-01T07:13:15;13.30;90.10
46356;DHT22;32066;49.474;11.106;2023-04-01T07:16:01;13.30;90.00
46356;DHT22;32066;49.474;11.106;2023-04-01T07:18:41;13.30;89.70
46356;DHT22;32066;49.474;11.106;2023-04-01T07:21:23;13.40;90.00
46356;DHT22;32066;49.474;11.106;2023-04-01T07:23:57;13.40;89.50
46356;DHT22;32066;49.474;11.106;2023-04-01T07:26:39;13.50;89.40
46356;DHT22;32066;49.474;11.106;2023-04-01T07:29:14;13.50;89.00
46356;DHT22;32066;49.474;11.106;2023-04-01T07:32:12;13.50;89.30
46356;DHT22;32066;49.474;11.106;2023-04-01T07:34:52;13.50;89.30
46356;DHT22;32066;49.474;11.106;2023-04-01T07:37:27;13.50;89.00
46356;DHT22;32066;49.474;11.106;2023-04-01T07:40:05;13.60;89.00
46356;DHT22;32066;49.474;11.106;2023-04-01T07:42:45;13.60;88.80
46356;DHT22;32066;49.474;11.106;2023-04-01T07:45:24;13.60;88.60
46356;DHT22;32066;49.474;11.106;2023-04-01T07:48:15;13.50;88.80
46356;DHT22;32066;49.474;11.106;2023-04-01T07:50:50;13.60;88.30
46356;DHT22;32066;49.474;11.106;2023-04-01T07:53:25;13.60;88.40
46356;DHT22;32066;49.474;11.106;2023-04-01T07:56:02;13.60;88.30
46356;DHT22;32066;49.474;11.106;2023-04-01T07:58:48;13.60;88.30
46356;DHT22;32066;49.474;11.106;2023-04-01T08:01:49;13.60;88.80
46356;DHT22;32066;49.474;11.106;2023-04-01T08:04:41;13.50;88.70
46356;DHT22;32066;49.474;11.106;2023-04-01T08:07:17;13.70;88.90
46356;DHT22;32066;49.474;11.106;2023-04-01T08:10:12;13.70;88.70
46356;DHT22;32066;49.474;11.106;2023-04-01T08:13:07;13.80;87.80
46356;DHT22;32066;49.474;11.106;2023-04-01T08:16:08;13.80;88.00
46356;DHT22;32066;49.474;11.106;2023-04-01T08:18:55;14.00;87.50
46356;DHT22;32066;49.474;11.106;2023-04-01T08:21:28;13.80;88.20
46356;DHT22;32066;49.474;11.106;2023-04-01T08:24:06;13.80;87.90
46356;DHT22;32066;49.474;11.106;2023-04-01T08:26:42;13.90;87.60
46356;DHT22;32066;49.474;11.106;2023-04-01T08:29:15;14.00;87.10
46356;DHT22;32066;49.474;11.106;2023-04-01T08:31:51;14.00;87.10
46356;DHT22;32066;49.474;11.106;2023-04-01T08:34:27;14.00;86.60
46356;DHT22;32066;49.474;11.106;2023-04-01T08:37:02;13.90;86.90
46356;DHT22;32066;49.474;11.106;2023-04-01T08:39:37;13.90;86.70
46356;DHT22;32066;49.474;11.106;2023-04-01T08:45:47;13.80;86.80
46356;DHT22;32066;49.474;11.106;2023-04-01T08:48:31;13.70;86.90
46356;DHT22;32066;49.474;11.106;2023-04-01T08:51:30;13.90;86.40
46356;DHT22;32066;49.474;11.106;2023-04-01T08:54:21;13.90;87.00
46356;DHT22;32066;49.474;11.106;2023-04-01T08:56:59;13.90;86.30
46356;DHT22;32066;49.474;11.106;2023-04-01T08:59:53;13.90;86.30
46356;DHT22;32066;49.474;11.106;2023-04-01T09:06:35;13.80;86.10
46356;DHT22;32066;49.474;11.106;2023-04-01T09:12:37;13.90;85.40
46356;DHT22;32066;49.474;11.106;2023-04-01T09:15:27;13.90;86.00
46356;DHT22;32066;49.474;11.106;2023-04-01T09:18:15;13.80;85.80
46356;DHT22;32066;49.474;11.106;2023-04-01T09:21:14;13.80;86.70
46356;DHT22;32066;49.474;11.106;2023-04-01T09:24:24;13.90;85.90
46356;DHT22;32066;49.474;11.106;2023-04-01T09:27:04;14.00;85.40
46356;DHT22;32066;49.474;11.106;2023-04-01T09:32:57;14.00;85.70
46356;DHT22;32066;49.474;11.106;2023-04-01T09:35:38;14.00;85.90
46356;DHT22;32066;49.474;11.106;2023-04-01T09:38:20;14.00;85.80
46356;DHT22;32066;49.474;11.106;2023-04-01T09:41:02;14.00;86.00
46356;DHT22;32066;49.474;11.106;2023-04-01T09:44:02;14.00;86.60
46356;DHT22;32066;49.474;11.106;2023-04-01T09:46:58;14.10;85.50
46356;DHT22;32066;49.474;11.106;2023-04-01T09:49:51;14.00;85.40
46356;DHT22;32066;49.474;11.106;2023-04-01T09:52:31;14.00;85.80
46356;DHT22;32066;49.474;11.106;2023-04-01T09:55:36;14.00;86.20
46356;DHT22;32066;49.474;11.106;2023-04-01T09:58:35;14.10;85.50
46356;DHT22;32066;49.474;11.106;2023-04-01T10:08:10;13.90;86.20
46356;DHT22;32066;49.474;11.106;2023-04-01T10:10:58;13.90;86.60
46356;DHT22;32066;49.474;11.106;2023-04-01T10:13:56;14.00;86.50
46356;DHT22;32066;49.474;11.106;2023-04-01T10:19:55;14.10;86.70
46356;DHT22;32066;49.474;11.106;2023-04-01T10:25:52;14.10;87.00
46356;DHT22;32066;49.474;11.106;2023-04-01T10:28:55;14.10;87.70
46356;DHT22;32066;49.474;11.106;2023-04-01T10:35:44;14.10;88.90
46356;DHT22;32066;49.474;11.106;2023-04-01T10:38:53;14.20;89.60
46356;DHT22;32066;49.474;11.106;2023-04-01T10:41:50;14.10;90.00
46356;DHT22;32066;49.474;11.106;2023-04-01T10:48:18;14.20;90.60
46356;DHT22;32066;49.474;11.106;2023-04-01T10:51:10;14.20;90.60
46356;DHT22;32066;49.474;11.106;2023-04-01T10:53:49;14.10;91.20
46356;DHT22;32066;49.474;11.106;2023-04-01T10:56:51;14.00;91.30
46356;DHT22;32066;49.474;11.106;2023-04-01T10:59:57;14.00;91.70
46356;DHT22;32066;49.474;11.106;2023-04-01T11:03:16;14.00;91.70
46356;DHT22;32066;49.474;11.106;2023-04-01T11:06:37;14.00;91.80
46356;DHT22;32066;49.474;11.106;2023-04-01T11:19:13;12.20;95.90
46356;DHT22;32066;49.474;11.106;2023-04-01T11:22:14;12.10;96.30
46356;DHT22;32066;49.474;11.106;2023-04-01T11:25:20;12.10;96.40
46356;DHT22;32066;49.474;11.106;2023-04-01T11:31:44;12.00;96.00
46356;DHT22;32066;49.474;11.106;2023-04-01T11:34:29;11.90;96.00
46356;DHT22;32066;49.474;11.106;2023-04-01T11:37:10;12.00;96.00
46356;DHT22;32066;49.474;11.106;2023-04-01T11:40:07;11.90;96.40
46356;DHT22;32066;49.474;11.106;2023-04-01T11:43:09;11.80;96.00
46356;DHT22;32066;49.474;11.106;2023-04-01T11:46:11;11.60;95.80
46356;DHT22;32066;49.474;11.106;2023-04-01T11:48:52;11.40;96.80
46356;DHT22;32066;49.474;11.106;2023-04-01T11:51:50;11.50;96.10
46356;DHT22;32066;49.474;11.106;2023-04-01T11:54:34;11.30;95.90
46356;DHT22;32066;49.474;11.106;2023-04-01T11:57:23;11.40;96.10
46356;DHT22;32066;49.474;11.106;2023-04-01T12:00:12;11.30;96.50
46356;DHT22;32066;49.474;11.106;2023-04-01T12:02:53;11.40;96.50
46356;DHT22;32066;49.474;11.106;2023-04-01T12:05:38;11.40;96.40
46356;DHT22;32066;49.474;11.106;2023-04-01T12:08:27;11.40;96.10
46356;DHT22;32066;49.474;11.106;2023-04-01T12:11:04;11.40;96.10
46356;DHT22;32066;49.474;11.106;2023-04-01T12:13:42;11.30;96.50
46356;DHT22;32066;49.474;11.106;2023-04-01T12:16:26;11.30;96.60
46356;DHT22;32066;49.474;11.106;2023-04-01T12:19:01;11.50;96.50
46356;DHT22;32066;49.474;11.106;2023-04-01T12:21:36;11.30;97.00
46356;DHT22;32066;49.474;11.106;2023-04-01T12:24:32;11.20;97.30
46356;DHT22;32066;49.474;11.106;2023-04-01T12:36:19;11.20;97.40
46356;DHT22;32066;49.474;11.106;2023-04-01T12:39:00;11.20;97.90
46356;DHT22;32066;49.474;11.106;2023-04-01T12:41:44;11.00;98.40
46356;DHT22;32066;49.474;11.106;2023-04-01T12:44:41;11.10;98.20
46356;DHT22;32066;49.474;11.106;2023-04-01T12:47:44;11.10;98.10
46356;DHT22;32066;49.474;11.106;2023-04-01T12:50:37;11.00;98.60
46356;DHT22;32066;49.474;11.106;2023-04-01T12:53:20;11.10;98.30
46356;DHT22;32066;49.474;11.106;2023-04-01T12:55:59;11.10;98.20
46356;DHT22;32066;49.474;11.106;2023-04-01T13:01:42;11.30;98.20
46356;DHT22;32066;49.474;11.106;2023-04-01T13:04:39;11.10;97.90
46356;DHT22;32066;49.474;11.106;2023-04-01T13:07:21;10.90;98.10
46356;DHT22;32066;49.474;11.106;2023-04-01T13:09:57;11.00;98.10
46356;DHT22;32066;49.474;11.106;2023-04-01T13:15:52;11.10;98.60
46356;DHT22;32066;49.474;11.106;2023-04-01T13:18:30;11.10;98.30
46356;DHT22;32066;49.474;11.106;2023-04-01T13:21:05;11.20;98.20
46356;DHT22;32066;49.474;11.106;2023-04-01T13:23:51;11.20;98.20
46356;DHT22;32066;49.474;11.106;2023-04-01T13:26:27;11.10;97.40
46356;DHT22;32066;49.474;11.106;2023-04-01T13:29:03;11.10;97.50
46356;DHT22;32066;49.474;11.106;2023-04-01T13:34:38;11.10;97.80
46356;DHT22;32066;49.474;11.106;2023-04-01T13:37:27;11.20;97.60
46356;DHT22;32066;49.474;11.106;2023-04-01T13:40:21;11.30;97.60
46356;DHT22;32066;49.474;11.106;2023-04-01T13:42:56;11.40;97.10
46356;DHT22;32066;49.474;11.106;2023-04-01T13:45:32;11.30;96.80
46356;DHT22;32066;49.474;11.106;2023-04-01T13:48:31;11.30;97.00
46356;DHT22;32066;49.474;11.106;2023-04-01T13:51:26;11.40;97.00
46356;DHT22;32066;49.474;11.106;2023-04-01T13:54:16;11.50;97.10
46356;DHT22;32066;49.474;11.106;2023-04-01T13:57:00;11.40;97.00
46356;DHT22;32066;49.474;11.106;2023-04-01T14:05:54;11.50;96.70
46356;DHT22;32066;49.474;11.106;2023-04-01T14:08:34;11.40;96.10
46356;DHT22;32066;49.474;11.106;2023-04-01T14:11:16;11.30;96.70
46356;DHT22;32066;49.474;11.106;2023-04-01T14:13:56;11.40;96.80
46356;DHT22;32066;49.474;11.106;2023-04-01T14:17:06;11.40;96.60
46356;DHT22;32066;49.474;11.106;2023-04-01T14:19:53;11.40;96.60
46356;DHT22;32066;49.474;11.106;2023-04-01T14:22:37;11.40;96.40
46356;DHT22;32066;49.474;11.106;2023-04-01T14:25:44;11.50;96.30
46356;DHT22;32066;49.474;11.106;2023-04-01T14:28:20;11.40;96.10
46356;DHT22;32066;49.474;11.106;2023-04-01T14:31:15;11.50;96.30
46356;DHT22;32066;49.474;11.106;2023-04-01T14:33:55;11.40;96.50
46356;DHT22;32066;49.474;11.106;2023-04-01T14:36:39;11.40;96.40
46356;DHT22;32066;49.474;11.106;2023-04-01T14:42:23;11.40;96.80
46356;DHT22;32066;49.474;11.106;2023-04-01T14:48:13;11.20;96.70
46356;DHT22;32066;49.474;11.106;2023-04-01T14:50:46;11.30;96.90
46356;DHT22;32066;49.474;11.106;2023-04-01T14:53:26;11.40;96.60
46356;DHT22;32066;49.474;11.106;2023-04-01T14:55:57;11.30;96.90
46356;DHT22;32066;49.474;11.106;2023-04-01T14:58:41;11.30;96.70
46356;DHT22;32066;49.474;11.106;2023-04-01T15:01:25;11.30;96.70
46356;DHT22;32066;49.474;11.106;2023-04-01T15:04:02;11.30;97.00
46356;DHT22;32066;49.474;11.106;2023-04-01T15:06:56;11.30;97.00
46356;DHT22;32066;49.474;11.106;2023-04-01T15:09:35;11.20;96.90
46356;DHT22;32066;49.474;11.106;2023-04-01T15:12:16;11.20;97.20
46356;DHT22;32066;49.474;11.106;2023-04-01T15:15:01;11.20;97.40
46356;DHT22;32066;49.474;11.106;2023-04-01T15:17:53;11.20;97.30
46356;DHT22;32066;49.474;11.106;2023-04-01T15:20:33;11.10;97.30
46356;DHT22;32066;49.474;11.106;2023-04-01T15:23:33;11.20;97.30
46356;DHT22;32066;49.474;11.106;2023-04-01T15:26:21;11.30;97.20
46356;DHT22;32066;49.474;11.106;2023-04-01T15:29:06;11.30;97.30
46356;DHT22;32066;49.474;11.106;2023-04-01T15:31:44;11.40;97.20
46356;DHT22;32066;49.474;11.106;2023-04-01T15:34:32;11.50;97.00
46356;DHT22;32066;49.474;11.106;2023-04-01T15:37:07;11.60;96.80
46356;DHT22;32066;49.474;11.106;2023-04-01T15:39:48;11.50;96.80
46356;DHT22;32066;49.474;11.106;2023-04-01T15:42:32;11.50;97.00
46356;DHT22;32066;49.474;11.106;2023-04-01T15:45:11;11.50;97.10
46356;DHT22;32066;49.474;11.106;2023-04-01T15:47:46;11.50;96.80
46356;DHT22;32066;49.474;11.106;2023-04-01T15:50:44;11.60;97.10
46356;DHT22;32066;49.474;11.106;2023-04-01T15:53:44;11.50;97.10
46356;DHT22;32066;49.474;11.106;2023-04-01T15:56:27;11.50;97.20
46356;DHT22;32066;49.474;11.106;2023-04-01T15:59:04;11.50;97.20
46356;DHT22;32066;49.474;11.106;2023-04-01T16:01:39;11.50;97.10
46356;DHT22;32066;49.474;11.106;2023-04-01T16:04:40;11.50;96.90
46356;DHT22;32066;49.474;11.106;2023-04-01T16:10:17;11.40;96.70
46356;DHT22;32066;49.474;11.106;2023-04-01T16:12:56;11.40;96.70
46356;DHT22;32066;49.474;11.106;2023-04-01T16:15:36;11.30;96.90
46356;DHT22;32066;49.474;11.106;2023-04-01T16:18:26;11.30;97.10
46356;DHT22;32066;49.474;11.106;2023-04-01T16:21:08;11.30;97.10
46356;DHT22;32066;49.474;11.106;2023-04-01T16:23:48;11.40;97.00
46356;DHT22;32066;49.474;11.106;2023-04-01T16:26:23;11.20;97.10
46356;DHT22;32066;49.474;11.106;2023-04-01T16:28:57;11.10;97.40
46356;DHT22;32066;49.474;11.106;2023-04-01T16:31:35;11.20;97.30
46356;DHT22;32066;49.474;11.106;2023-04-01T16:34:10;11.20;96.90
46356;DHT22;32066;49.474;11.106;2023-04-01T16:36:49;11.20;97.00
46356;DHT22;32066;49.474;11.106;2023-04-01T16:39:27;11.20;97.00
46356;DHT22;32066;49.474;11.106;2023-04-01T16:42:16;11.20;96.90
46356;DHT22;32066;49.474;11.106;2023-04-01T16:44:50;11.20;96.80
46356;DHT22;32066;49.474;11.106;2023-04-01T16:47:21;11.20;97.00
46356;DHT22;32066;49.474;11.106;2023-04-01T16:49:58;11.20;96.90
46356;DHT22;32066;49.474;11.106;2023-04-01T16:52:40;11.20;96.90
46356;DHT22;32066;49.474;11.106;2023-04-01T16:55:16;11.10;97.30
46356;DHT22;32066;49.474;11.106;2023-04-01T16:57:49;11.10;97.00
46356;DHT22;32066;49.474;11.106;2023-04-01T17:00:26;11.00;97.20
46356;DHT22;32066;49.474;11.106;2023-04-01T17:03:03;11.00;97.30
46356;DHT22;32066;49.474;11.106;2023-04-01T17:05:40;11.00;97.40
46356;DHT22;32066;49.474;11.106;2023-04-01T17:08:21;11.20;97.30
46356;DHT22;32066;49.474;11.106;2023-04-01T17:10:53;11.10;97.50
46356;DHT22;32066;49.474;11.106;2023-04-01T17:13:35;11.00;97.70
46356;DHT22;32066;49.474;11.106;2023-04-01T17:16:27;11.00;97.80
46356;DHT22;32066;49.474;11.106;2023-04-01T17:19:08;11.10;98.00
46356;DHT22;32066;49.474;11.106;2023-04-01T17:21:48;11.00;97.90
46356;DHT22;32066;49.474;11.106;2023-04-01T17:24:31;11.00;97.90
46356;DHT22;32066;49.474;11.106;2023-04-01T17:27:06;10.90;98.30
46356;DHT22;32066;49.474;11.106;2023-04-01T17:30:09;10.80;98.20
46356;DHT22;32066;49.474;11.106;2023-04-01T17:32:53;10.90;98.20
46356;DHT22;32066;49.474;11.106;2023-04-01T17:35:27;10.90;97.90
46356;DHT22;32066;49.474;11.106;2023-04-01T17:38:07;10.90;98.10
46356;DHT22;32066;49.474;11.106;2023-04-01T17:40:53;10.90;98.10
46356;DHT22;32066;49.474;11.106;2023-04-01T17:43:32;10.80;98.20
46356;DHT22;32066;49.474;11.106;2023-04-01T17:46:10;10.80;98.40
46356;DHT22;32066;49.474;11.106;2023-04-01T17:48:55;10.80;98.60
46356;DHT22;32066;49.474;11.106;2023-04-01T17:51:32;10.80;97.80
46356;DHT22;32066;49.474;11.106;2023-04-01T17:54:15;10.70;98.00
46356;DHT22;32066;49.474;11.106;2023-04-01T17:56:57;10.90;97.90
46356;DHT22;32066;49.474;11.106;2023-04-01T17:59:35;11.00;97.80
46356;DHT22;32066;49.474;11.106;2023-04-01T18:02:16;10.90;97.60
46356;DHT22;32066;49.474;11.106;2023-04-01T18:05:03;11.00;97.70
46356;DHT22;32066;49.474;11.106;2023-04-01T18:07:49;11.00;97.60